Time;durP1;ratioP1;P1;durP2;ratioP2;P2;SDS_P1;SDS_P2;PMS_P1;PMS_P2;Temp;Humidity;BMP_temperature;BMP_pressure;BME280_temperature;BME280_humidity;BME280_pressure;Samples;Min_cycle;Max_cycle;Signal;HPM_P1;HPM_P2
2022/10/31 00:01:20;;;;;;;17.67;14.50;;;14.80;99.90;;;;;;5068427;28;20398;-58
2022/10/31 00:03:45;;;;;;;18.80;14.38;;;14.80;99.90;;;;;;5068872;28;20499;-59
2022/10/31 00:06:11;;;;;;;16.40;14.40;;;14.80;99.90;;;;;;5068547;28;20741;-57
2022/10/31 00:08:37;;;;;;;17.33;14.13;;;14.90;99.90;;;;;;5069684;28;20896;-56
2022/10/31 00:11:03;;;;;;;16.83;14.27;;;14.90;99.90;;;;;;5068488;28;20735;-56
2022/10/31 00:13:28;;;;;;;20.20;14.73;;;14.80;99.90;;;;;;5068724;28;20376;-55
2022/10/31 00:15:54;;;;;;;18.80;14.65;;;14.80;99.90;;;;;;5068402;28;20883;-56
2022/10/31 00:18:19;;;;;;;15.63;13.97;;;14.70;99.90;;;;;;5070431;28;20641;-56
2022/10/31 00:20:45;;;;;;;15.50;13.80;;;14.70;99.90;;;;;;5070708;28;20470;-57
2022/10/31 00:23:11;;;;;;;15.85;13.95;;;14.60;99.90;;;;;;5070273;28;20384;-57
2022/10/31 00:25:39;;;;;;;14.67;13.17;;;14.60;99.90;;;;;;5071513;28;20651;-57
2022/10/31 00:28:06;;;;;;;17.50;13.30;;;14.60;99.90;;;;;;5070670;28;20783;-56
2022/10/31 00:30:31;;;;;;;16.52;13.88;;;14.60;99.90;;;;;;5070711;28;20788;-56
2022/10/31 00:32:57;;;;;;;14.83;13.33;;;14.60;99.90;;;;;;5068124;28;20495;-57
2022/10/31 00:35:22;;;;;;;18.63;14.20;;;14.60;99.90;;;;;;5068639;28;20388;-56
2022/10/31 00:37:48;;;;;;;15.05;13.45;;;14.50;99.90;;;;;;5067441;28;20387;-54
2022/10/31 00:40:14;;;;;;;16.40;13.03;;;14.50;99.90;;;;;;5066464;28;20392;-57
2022/10/31 00:42:41;;;;;;;17.43;13.73;;;14.50;99.90;;;;;;5067571;28;20491;-56
2022/10/31 00:45:10;;;;;;;16.73;13.63;;;14.50;99.90;;;;;;5066982;28;20395;-55
2022/10/31 00:47:35;;;;;;;17.25;13.90;;;14.50;99.90;;;;;;5068071;28;20445;-56
2022/10/31 00:50:03;;;;;;;18.02;13.88;;;14.50;99.90;;;;;;5067607;28;20403;-57
2022/10/31 00:52:28;;;;;;;14.35;12.85;;;14.50;99.90;;;;;;5067645;28;20448;-56
2022/10/31 00:54:54;;;;;;;17.48;13.85;;;14.50;99.90;;;;;;5068844;28;20408;-54
2022/10/31 00:57:19;;;;;;;15.90;13.87;;;14.50;99.90;;;;;;5069226;28;20439;-55
2022/10/31 00:59:44;;;;;;;17.65;13.18;;;14.50;99.90;;;;;;5068796;28;20390;-55
2022/10/31 01:02:10;;;;;;;18.53;14.27;;;14.50;99.90;;;;;;5067879;28;20395;-55
2022/10/31 01:04:36;;;;;;;16.83;13.80;;;14.50;99.90;;;;;;5070479;28;20697;-56
2022/10/31 01:07:01;;;;;;;15.95;12.98;;;14.40;99.90;;;;;;5069340;28;20380;-54
2022/10/31 01:09:27;;;;;;;17.07;13.50;;;14.40;99.90;;;;;;5070193;28;20632;-55
2022/10/31 01:11:52;;;;;;;17.02;12.90;;;14.50;99.90;;;;;;5069288;28;20502;-57
2022/10/31 01:14:17;;;;;;;19.13;13.77;;;14.50;99.90;;;;;;5069592;28;20384;-56
2022/10/31 01:16:43;;;;;;;17.52;13.75;;;14.50;99.90;;;;;;5069929;28;20396;-57
2022/10/31 01:19:08;;;;;;;18.73;14.50;;;14.60;99.90;;;;;;5069352;28;20462;-56
2022/10/31 01:21:34;;;;;;;22.25;14.63;;;14.60;99.90;;;;;;5069519;28;20396;-57
2022/10/31 01:24:01;;;;;;;18.87;15.10;;;14.60;99.90;;;;;;5068202;28;20449;-56
2022/10/31 01:26:30;;;;;;;24.95;17.10;;;14.60;99.90;;;;;;5069109;28;20909;-56
2022/10/31 01:28:57;;;;;;;25.30;17.77;;;14.60;99.90;;;;;;5069385;28;20802;-54
2022/10/31 01:31:26;;;;;;;20.10;15.53;;;14.60;99.90;;;;;;5068120;28;20479;-57
2022/10/31 01:33:52;;;;;;;26.25;18.27;;;14.60;99.90;;;;;;5067373;28;20403;-57
2022/10/31 01:36:24;;;;;;;23.80;17.15;;;14.60;99.90;;;;;;5068370;28;20390;-54
2022/10/31 01:38:51;;;;;;;24.15;17.42;;;14.60;99.90;;;;;;5067342;28;20620;-53
2022/10/31 01:41:21;;;;;;;27.52;18.85;;;14.70;99.90;;;;;;5066822;28;20395;-56
2022/10/31 01:43:49;;;;;;;27.70;19.10;;;14.70;99.90;;;;;;5066536;28;20375;-55
2022/10/31 01:46:19;;;;;;;28.33;21.58;;;14.70;99.90;;;;;;5066775;28;20393;-54
2022/10/31 01:48:45;;;;;;;31.27;20.45;;;14.70;99.90;;;;;;5068201;28;20392;-60
2022/10/31 01:51:14;;;;;;;28.35;19.40;;;14.60;99.90;;;;;;5069317;28;20582;-54
2022/10/31 01:53:41;;;;;;;26.67;20.70;;;14.60;99.90;;;;;;5068687;28;20430;-56
2022/10/31 01:56:08;;;;;;;21.77;17.85;;;14.70;99.90;;;;;;5069317;28;20771;-55
2022/10/31 01:58:33;;;;;;;31.58;20.77;;;14.70;99.90;;;;;;5067098;28;20388;-57
2022/10/31 02:01:00;;;;;;;23.73;18.42;;;14.70;99.90;;;;;;5063890;28;20382;-53
2022/10/31 02:03:27;;;;;;;26.63;19.75;;;14.70;99.90;;;;;;5066664;28;20387;-53
2022/10/31 02:05:55;;;;;;;28.07;20.33;;;14.70;99.90;;;;;;5066240;28;20423;-53
2022/10/31 02:08:26;;;;;;;21.58;18.80;;;14.70;99.90;;;;;;5066789;28;20390;-55
2022/10/31 02:10:52;;;;;;;23.05;18.52;;;14.70;99.90;;;;;;5068173;28;20388;-52
2022/10/31 02:13:19;;;;;;;25.60;19.23;;;14.70;99.90;;;;;;5070479;28;20649;-53
2022/10/31 02:15:48;;;;;;;28.35;22.02;;;14.70;99.90;;;;;;5071009;28;20387;-51
2022/10/31 02:18:14;;;;;;;31.88;22.40;;;14.70;99.90;;;;;;5071501;28;20392;-52
2022/10/31 02:21:01;;;;;;;23.57;18.83;;;14.60;99.90;;;;;;5071418;28;20387;-55
2022/10/31 02:24:03;;;;;;;28.88;20.30;;;14.60;99.90;;;;;;5071664;28;20376;-57
2022/10/31 02:26:51;;;;;;;27.33;19.63;;;14.60;99.90;;;;;;5071378;28;20419;-54
2022/10/31 02:29:40;;;;;;;22.45;18.05;;;14.60;99.90;;;;;;5070096;28;20391;-57
2022/10/31 02:32:17;;;;;;;30.85;22.98;;;14.60;99.90;;;;;;5070014;28;20416;-57
2022/10/31 02:34:58;;;;;;;22.15;18.13;;;14.60;99.90;;;;;;5069395;28;20482;-57
2022/10/31 02:37:46;;;;;;;33.27;21.80;;;14.60;99.90;;;;;;5068212;28;20379;-55
2022/10/31 02:40:25;;;;;;;27.63;20.00;;;14.50;99.90;;;;;;5069108;28;20593;-56
2022/10/31 02:42:50;;;;;;;22.23;18.30;;;14.50;99.90;;;;;;5069268;28;20414;-55
2022/10/31 02:45:50;;;;;;;23.70;18.53;;;14.50;99.90;;;;;;5070332;28;20395;-57
2022/10/31 02:48:22;;;;;;;23.00;18.00;;;14.50;99.90;;;;;;5070320;28;20937;-55
2022/10/31 02:50:55;;;;;;;22.90;17.67;;;14.60;99.90;;;;;;5073002;28;20921;-57
2022/10/31 02:53:20;;;;;;;23.95;18.30;;;14.60;99.90;;;;;;5071539;28;20731;-55
2022/10/31 02:56:10;;;;;;;23.97;19.03;;;14.60;99.90;;;;;;5072731;28;20803;-56
2022/10/31 02:58:40;;;;;;;25.08;19.60;;;14.60;99.90;;;;;;5071674;28;20407;-53
2022/10/31 03:01:11;;;;;;;21.80;17.88;;;14.50;99.90;;;;;;5072231;28;20387;-54
2022/10/31 03:03:44;;;;;;;23.50;18.52;;;14.50;99.90;;;;;;5071130;28;20387;-53
2022/10/31 03:06:19;;;;;;;26.25;20.67;;;14.50;99.90;;;;;;5068726;28;20459;-52
2022/10/31 03:09:19;;;;;;;23.30;18.45;;;14.40;99.90;;;;;;5066964;28;20395;-55
2022/10/31 03:12:06;;;;;;;24.17;18.92;;;14.50;99.90;;;;;;5067516;28;20841;-60
2022/10/31 03:14:47;;;;;;;22.33;17.85;;;14.50;99.90;;;;;;5067141;28;20609;-52
2022/10/31 03:17:35;;;;;;;23.83;18.10;;;14.50;99.90;;;;;;5067350;28;20815;-55
2022/10/31 03:20:03;;;;;;;28.15;20.25;;;14.40;99.90;;;;;;5067417;28;20384;-52
2022/10/31 03:22:30;;;;;;;22.73;18.33;;;14.40;99.90;;;;;;5069834;28;20399;-57
2022/10/31 03:24:57;;;;;;;21.15;17.23;;;14.40;99.90;;;;;;5069702;28;20441;-57
2022/10/31 03:27:30;;;;;;;23.23;16.95;;;14.40;99.90;;;;;;5068977;28;20388;-56
2022/10/31 03:30:00;;;;;;;24.92;17.85;;;14.50;99.90;;;;;;5068257;28;20384;-53
2022/10/31 03:32:31;;;;;;;21.85;17.40;;;14.50;99.90;;;;;;5068118;28;20419;-52
2022/10/31 03:34:59;;;;;;;21.00;16.70;;;14.40;99.90;;;;;;5071333;28;20803;-55
2022/10/31 03:37:27;;;;;;;24.83;18.15;;;14.40;99.90;;;;;;5071000;28;20383;-51
2022/10/31 03:39:55;;;;;;;20.85;17.27;;;14.40;99.90;;;;;;5069973;28;20649;-55
2022/10/31 03:42:24;;;;;;;26.73;19.60;;;14.40;99.90;;;;;;5071867;28;20394;-55
2022/10/31 03:44:57;;;;;;;23.90;17.83;;;14.40;99.90;;;;;;5071663;28;20388;-54
2022/10/31 03:47:23;;;;;;;24.38;19.20;;;14.40;99.90;;;;;;5071806;28;20404;-54
2022/10/31 03:49:49;;;;;;;22.65;17.77;;;14.30;99.90;;;;;;5075594;28;20391;-51
2022/10/31 03:52:30;;;;;;;20.42;16.92;;;14.30;99.90;;;;;;5074300;28;20593;-53
2022/10/31 03:55:21;;;;;;;20.73;17.30;;;14.30;99.90;;;;;;5075501;28;20448;-54
2022/10/31 03:58:07;;;;;;;28.00;20.20;;;14.30;99.90;;;;;;5061911;28;20472;-52
2022/10/31 04:00:34;;;;;;;25.15;18.95;;;14.30;99.90;;;;;;5074827;28;20372;-51
2022/10/31 04:03:11;;;;;;;23.23;17.40;;;14.30;99.90;;;;;;5074396;28;20566;-56
2022/10/31 04:06:32;;;;;;;23.05;18.70;;;14.30;99.90;;;;;;5076746;28;20471;-52
2022/10/31 04:09:02;;;;;;;22.45;17.65;;;14.30;99.90;;;;;;5073066;28;20813;-51
2022/10/31 04:11:33;;;;;;;22.97;18.87;;;14.20;99.90;;;;;;5072925;28;20434;-54
2022/10/31 04:14:01;;;;;;;24.50;18.52;;;14.30;99.90;;;;;;5072906;28;20372;-55
2022/10/31 04:16:27;;;;;;;28.10;22.65;;;14.20;99.90;;;;;;5072243;28;20384;-54
2022/10/31 04:18:53;;;;;;;23.80;18.67;;;14.20;99.90;;;;;;5071393;28;20499;-54
2022/10/31 04:21:18;;;;;;;26.00;19.63;;;14.20;99.90;;;;;;5071271;28;20522;-51
2022/10/31 04:23:44;;;;;;;28.98;20.52;;;14.10;99.90;;;;;;5072087;28;20721;-52
2022/10/31 04:26:13;;;;;;;30.47;20.23;;;14.10;99.90;;;;;;5072321;28;20394;-54
2022/10/31 04:28:38;;;;;;;25.50;19.87;;;14.10;99.90;;;;;;5072412;28;20388;-55
2022/10/31 04:31:04;;;;;;;24.60;19.43;;;14.10;99.90;;;;;;5072584;28;20396;-53
2022/10/31 04:33:30;;;;;;;23.47;17.37;;;14.10;99.90;;;;;;5071782;28;20836;-51
2022/10/31 04:35:55;;;;;;;21.88;17.98;;;14.10;99.90;;;;;;5072127;28;20694;-54
2022/10/31 04:38:21;;;;;;;21.80;18.23;;;14.10;99.90;;;;;;5072317;28;20463;-52
2022/10/31 04:40:46;;;;;;;24.98;18.95;;;14.10;99.90;;;;;;5072539;28;20399;-52
2022/10/31 04:43:12;;;;;;;26.37;19.17;;;14.10;99.90;;;;;;5070698;28;20744;-56
2022/10/31 04:45:37;;;;;;;27.23;20.13;;;14.10;99.90;;;;;;5070366;28;20395;-53
2022/10/31 04:48:03;;;;;;;28.02;19.65;;;14.10;99.90;;;;;;5068620;28;20402;-57
2022/10/31 04:50:29;;;;;;;28.00;20.00;;;14.10;99.90;;;;;;5069581;28;20406;-57
2022/10/31 04:52:54;;;;;;;23.53;17.73;;;14.10;99.90;;;;;;5068194;28;20636;-52
2022/10/31 04:55:20;;;;;;;30.37;22.07;;;14.20;99.90;;;;;;5068332;28;20379;-55
2022/10/31 04:57:48;;;;;;;24.40;19.20;;;14.10;99.90;;;;;;5069805;28;20422;-54
2022/10/31 05:00:16;;;;;;;28.55;20.27;;;14.10;99.90;;;;;;5069481;28;20802;-53
2022/10/31 05:02:46;;;;;;;25.63;19.58;;;14.10;99.90;;;;;;5070080;28;20480;-55
2022/10/31 05:05:16;;;;;;;27.67;21.20;;;14.10;99.90;;;;;;5071708;28;20387;-54
2022/10/31 05:07:43;;;;;;;34.22;23.30;;;14.10;99.90;;;;;;5070841;28;20393;-53
2022/10/31 05:10:11;;;;;;;29.30;21.33;;;14.10;99.90;;;;;;5071770;28;20445;-55
2022/10/31 05:12:37;;;;;;;29.50;21.50;;;14.10;99.90;;;;;;5069406;28;20763;-56
2022/10/31 05:15:04;;;;;;;24.92;19.95;;;14.10;99.90;;;;;;5067692;28;20519;-55
2022/10/31 05:17:31;;;;;;;24.63;18.77;;;14.10;99.90;;;;;;5065436;28;20822;-54
2022/10/31 05:19:56;;;;;;;22.77;18.45;;;14.10;99.90;;;;;;5067264;28;20388;-52
2022/10/31 05:22:22;;;;;;;28.97;21.07;;;14.10;99.90;;;;;;5066643;28;20392;-55
2022/10/31 05:24:47;;;;;;;30.13;22.63;;;14.10;99.90;;;;;;5065931;28;20714;-52
2022/10/31 05:27:13;;;;;;;26.00;20.05;;;14.10;99.90;;;;;;5064604;28;20395;-51
2022/10/31 05:29:38;;;;;;;28.47;21.13;;;14.10;99.90;;;;;;5067122;28;20384;-51
2022/10/31 05:32:04;;;;;;;24.48;18.88;;;14.10;99.90;;;;;;5070230;28;20713;-53
2022/10/31 05:34:29;;;;;;;27.43;21.30;;;14.10;99.90;;;;;;5071437;28;20380;-53
2022/10/31 05:36:54;;;;;;;25.93;19.80;;;14.10;99.90;;;;;;5071022;28;20474;-54
2022/10/31 05:39:20;;;;;;;24.57;19.40;;;14.10;99.90;;;;;;5069855;28;20496;-53
2022/10/31 05:41:45;;;;;;;26.00;20.93;;;14.10;99.90;;;;;;5070323;28;20535;-55
2022/10/31 05:44:11;;;;;;;27.80;22.17;;;14.20;99.90;;;;;;5069523;28;20503;-55
2022/10/31 05:46:36;;;;;;;26.83;19.77;;;14.10;99.90;;;;;;5066767;28;20750;-55
2022/10/31 05:49:02;;;;;;;25.08;20.45;;;14.10;99.90;;;;;;5064424;28;20667;-55
2022/10/31 05:51:27;;;;;;;28.27;21.20;;;14.10;99.90;;;;;;5065514;28;20407;-55
2022/10/31 05:53:53;;;;;;;29.30;21.00;;;14.10;99.90;;;;;;5063315;28;20394;-53
2022/10/31 05:56:18;;;;;;;30.93;21.70;;;14.10;99.90;;;;;;5063843;28;20660;-53
2022/10/31 05:58:44;;;;;;;28.93;23.10;;;14.10;99.90;;;;;;5062994;28;20907;-56
2022/10/31 06:01:09;;;;;;;25.50;20.58;;;14.00;99.90;;;;;;5064175;28;20375;-57
2022/10/31 06:03:35;;;;;;;26.30;20.50;;;14.10;99.90;;;;;;5065973;28;20396;-54
2022/10/31 06:06:00;;;;;;;32.08;22.73;;;14.10;99.90;;;;;;5065667;28;20403;-52
2022/10/31 06:08:27;;;;;;;25.43;20.37;;;14.10;99.90;;;;;;5066610;28;20383;-57
2022/10/31 06:10:53;;;;;;;33.63;23.67;;;14.10;99.90;;;;;;5066652;28;20757;-56
2022/10/31 06:13:19;;;;;;;27.15;20.02;;;14.10;99.90;;;;;;5067693;28;20368;-55
2022/10/31 06:15:44;;;;;;;39.28;26.17;;;14.10;99.90;;;;;;5068085;28;20383;-56
2022/10/31 06:18:10;;;;;;;36.20;24.67;;;14.00;99.90;;;;;;5069405;28;20410;-55
2022/10/31 06:20:36;;;;;;;36.90;24.23;;;14.00;99.90;;;;;;5069215;28;20379;-53
2022/10/31 06:23:02;;;;;;;31.73;22.58;;;14.00;99.90;;;;;;5067771;28;20392;-56
2022/10/31 06:25:27;;;;;;;33.87;23.57;;;14.00;99.90;;;;;;5068086;28;20803;-57
2022/10/31 06:27:53;;;;;;;33.10;22.67;;;14.00;99.90;;;;;;5067271;28;20682;-52
2022/10/31 06:30:19;;;;;;;31.02;23.77;;;14.00;99.90;;;;;;5070853;28;20418;-54
2022/10/31 06:32:45;;;;;;;29.20;21.55;;;14.00;99.90;;;;;;5068202;28;20499;-53
2022/10/31 06:35:10;;;;;;;32.77;24.40;;;14.00;99.90;;;;;;5068393;28;20391;-54
2022/10/31 06:37:36;;;;;;;32.13;23.33;;;14.00;99.90;;;;;;5067176;28;20484;-54
2022/10/31 06:40:02;;;;;;;27.60;21.05;;;14.00;99.90;;;;;;5066798;28;20429;-53
2022/10/31 06:42:28;;;;;;;23.50;18.60;;;14.00;99.90;;;;;;5066195;28;20406;-53
2022/10/31 06:44:53;;;;;;;27.63;19.58;;;14.00;99.90;;;;;;5066649;28;20466;-50
2022/10/31 06:47:18;;;;;;;28.20;22.27;;;14.10;99.90;;;;;;5066858;28;20399;-55
2022/10/31 06:49:44;;;;;;;29.92;21.65;;;14.10;99.90;;;;;;5066658;28;20473;-53
2022/10/31 06:52:10;;;;;;;29.70;21.03;;;14.10;99.90;;;;;;5067403;28;20748;-55
2022/10/31 06:54:35;;;;;;;22.33;18.17;;;14.10;99.90;;;;;;5067710;28;20395;-56
2022/10/31 06:57:01;;;;;;;26.55;19.63;;;14.10;99.90;;;;;;5067948;28;20438;-52
2022/10/31 06:59:26;;;;;;;25.97;20.90;;;14.10;99.90;;;;;;5067197;28;20395;-53
2022/10/31 07:01:52;;;;;;;26.42;19.90;;;14.10;99.90;;;;;;5066665;28;20707;-57
2022/10/31 07:04:17;;;;;;;28.10;21.23;;;14.20;99.90;;;;;;5065638;28;20392;-54
2022/10/31 07:06:43;;;;;;;28.95;22.17;;;14.10;99.90;;;;;;5063698;28;20490;-57
2022/10/31 07:09:08;;;;;;;25.38;19.40;;;14.10;99.90;;;;;;5066531;28;20392;-56
2022/10/31 07:11:34;;;;;;;25.10;19.37;;;14.10;99.90;;;;;;5064476;28;20415;-52
2022/10/31 07:13:59;;;;;;;32.63;21.50;;;14.20;99.90;;;;;;5062130;28;20383;-57
2022/10/31 07:16:25;;;;;;;34.10;25.90;;;14.20;99.90;;;;;;5062532;28;20407;-54
2022/10/31 07:18:50;;;;;;;40.33;26.60;;;14.10;99.90;;;;;;5062573;28;20443;-54
2022/10/31 07:21:16;;;;;;;35.07;24.83;;;14.00;99.90;;;;;;5062350;28;20391;-54
2022/10/31 07:23:41;;;;;;;39.57;25.23;;;13.90;99.90;;;;;;5065640;28;20590;-54
2022/10/31 07:26:09;;;;;;;34.13;25.25;;;13.90;99.90;;;;;;5067589;28;20383;-56
2022/10/31 07:28:34;;;;;;;35.85;24.90;;;13.80;99.90;;;;;;5066429;28;20387;-56
2022/10/31 07:31:00;;;;;;;28.45;22.17;;;13.80;99.90;;;;;;5066222;28;20678;-52
2022/10/31 07:33:26;;;;;;;31.77;22.05;;;13.80;99.90;;;;;;5069216;28;20649;-56
2022/10/31 07:35:52;;;;;;;31.50;21.60;;;13.90;99.90;;;;;;5066063;28;20478;-54
2022/10/31 07:38:17;;;;;;;27.00;19.70;;;13.90;99.90;;;;;;5064463;28;20672;-56
2022/10/31 07:40:43;;;;;;;33.17;20.77;;;13.90;99.90;;;;;;5062621;28;20485;-53
2022/10/31 07:43:11;;;;;;;25.88;19.20;;;13.90;99.90;;;;;;5063237;28;20431;-57
2022/10/31 07:45:36;;;;;;;25.23;18.30;;;13.90;99.90;;;;;;5062561;28;20448;-57
2022/10/31 07:48:02;;;;;;;29.40;18.97;;;13.90;99.90;;;;;;5063768;28;20395;-52
2022/10/31 07:50:33;;;;;;;24.63;18.58;;;13.80;99.90;;;;;;5068149;28;20610;-53
2022/10/31 07:53:04;;;;;;;24.40;18.40;;;13.80;99.90;;;;;;5067100;28;20515;-56
2022/10/31 07:55:30;;;;;;;25.80;19.63;;;13.90;99.90;;;;;;5068686;28;20519;-55
2022/10/31 07:58:00;;;;;;;23.67;17.30;;;13.80;99.90;;;;;;5067795;28;20441;-55
2022/10/31 08:00:26;;;;;;;22.98;18.05;;;13.80;99.90;;;;;;5065985;28;20449;-57
2022/10/31 08:03:03;;;;;;;20.27;15.73;;;13.80;99.90;;;;;;5065388;28;20581;-55
2022/10/31 08:05:30;;;;;;;21.67;17.30;;;13.80;99.90;;;;;;5064787;28;20494;-57
2022/10/31 08:07:55;;;;;;;22.10;15.93;;;13.90;99.90;;;;;;5065215;28;20665;-56
2022/10/31 08:10:21;;;;;;;20.30;16.83;;;13.90;99.90;;;;;;5061627;28;20454;-56
2022/10/31 08:12:54;;;;;;;21.47;16.63;;;13.90;99.90;;;;;;5058899;28;20465;-55
2022/10/31 08:15:19;;;;;;;18.23;15.45;;;13.90;99.90;;;;;;5058860;28;20511;-55
2022/10/31 08:17:45;;;;;;;14.87;13.20;;;14.00;99.90;;;;;;5060629;28;20880;-55
2022/10/31 08:20:10;;;;;;;20.67;15.80;;;14.10;99.90;;;;;;5075911;28;20384;-53
2022/10/31 08:22:36;;;;;;;18.55;14.32;;;14.10;99.90;;;;;;5059840;28;20395;-55
2022/10/31 08:25:05;;;;;;;19.33;15.23;;;14.10;99.90;;;;;;5062517;28;20446;-55
2022/10/31 08:27:30;;;;;;;18.23;13.82;;;14.10;99.90;;;;;;5062071;28;20391;-56
2022/10/31 08:29:56;;;;;;;20.80;15.77;;;14.10;99.90;;;;;;5061262;28;20640;-53
2022/10/31 08:32:21;;;;;;;18.43;15.07;;;14.10;99.90;;;;;;5058268;28;20645;-57
2022/10/31 08:34:46;;;;;;;22.67;17.40;;;14.10;99.90;;;;;;5055819;28;20704;-54
2022/10/31 08:37:12;;;;;;;21.80;15.83;;;14.10;99.90;;;;;;5057204;28;20972;-55
2022/10/31 08:39:38;;;;;;;19.70;16.30;;;14.10;99.90;;;;;;5056240;28;20666;-55
2022/10/31 08:42:03;;;;;;;18.97;16.33;;;14.10;99.90;;;;;;5053121;28;20427;-54
2022/10/31 08:44:32;;;;;;;18.57;14.50;;;14.10;99.90;;;;;;5053541;28;20395;-57
2022/10/31 08:46:57;;;;;;;16.77;13.93;;;14.10;99.90;;;;;;5051666;28;21093;-57
2022/10/31 08:49:22;;;;;;;19.20;15.40;;;14.20;99.90;;;;;;5049725;28;20584;-57
2022/10/31 08:51:48;;;;;;;17.13;14.57;;;14.10;99.90;;;;;;5048720;28;20445;-53
2022/10/31 08:54:14;;;;;;;14.53;13.00;;;14.10;99.90;;;;;;5051571;28;20479;-56
2022/10/31 08:56:39;;;;;;;13.23;11.82;;;14.20;99.90;;;;;;5049903;28;20445;-55
2022/10/31 08:59:05;;;;;;;14.93;12.80;;;14.30;99.90;;;;;;5051322;28;20383;-56
2022/10/31 09:01:30;;;;;;;14.88;13.32;;;14.30;99.90;;;;;;5052602;28;20391;-56
2022/10/31 09:03:56;;;;;;;14.75;12.88;;;14.40;99.90;;;;;;5051726;28;20946;-56
2022/10/31 09:06:40;;;;;;;13.17;11.73;;;14.40;99.90;;;;;;5053135;28;20380;-55
2022/10/31 09:09:06;;;;;;;15.80;14.10;;;14.50;99.90;;;;;;5056811;28;20662;-56
2022/10/31 09:11:34;;;;;;;18.00;15.33;;;14.50;99.90;;;;;;5061080;28;20523;-55
2022/10/31 09:13:59;;;;;;;16.30;13.02;;;14.50;99.90;;;;;;5059416;28;20422;-56
2022/10/31 09:16:47;;;;;;;22.40;18.50;;;14.50;99.90;;;;;;5063078;28;20391;-57
2022/10/31 09:19:12;;;;;;;21.40;16.92;;;14.40;99.90;;;;;;5059060;28;20376;-54
2022/10/31 09:21:38;;;;;;;24.17;17.70;;;14.20;99.90;;;;;;5058622;28;20395;-57
2022/10/31 09:24:04;;;;;;;21.02;17.92;;;14.30;99.90;;;;;;5059610;28;20400;-51
2022/10/31 09:26:30;;;;;;;19.75;16.05;;;14.20;99.90;;;;;;5057524;28;20751;-57
2022/10/31 09:28:57;;;;;;;17.95;15.07;;;14.20;99.90;;;;;;5056255;28;20525;-52
2022/10/31 09:31:22;;;;;;;17.67;14.73;;;14.30;99.90;;;;;;5053850;28;20482;-56
2022/10/31 09:33:48;;;;;;;24.63;20.02;;;14.40;99.90;;;;;;5051223;28;20438;-56
2022/10/31 09:36:13;;;;;;;23.17;18.17;;;14.30;99.90;;;;;;5055713;28;20413;-55
2022/10/31 09:38:39;;;;;;;21.40;17.45;;;14.30;99.90;;;;;;5057866;28;20427;-52
2022/10/31 09:41:29;;;;;;;17.23;15.43;;;14.20;99.90;;;;;;5056915;28;20392;-54
2022/10/31 09:44:08;;;;;;;13.80;12.40;;;14.30;99.90;;;;;;5052586;28;20737;-54
2022/10/31 09:46:47;;;;;;;18.73;15.20;;;14.40;99.90;;;;;;5051433;28;20526;-56
2022/10/31 09:49:40;;;;;;;22.92;17.60;;;14.50;99.90;;;;;;5054487;28;20564;-56
2022/10/31 09:52:26;;;;;;;22.90;18.00;;;14.40;99.90;;;;;;5056070;28;20403;-56
2022/10/31 09:55:16;;;;;;;26.90;22.65;;;14.30;99.90;;;;;;5056119;28;20452;-53
2022/10/31 09:57:52;;;;;;;24.08;20.60;;;14.10;99.90;;;;;;5055035;28;20375;-56
2022/10/31 10:00:26;;;;;;;25.27;18.40;;;14.00;99.90;;;;;;5052688;28;20410;-55
2022/10/31 10:03:01;;;;;;;14.77;13.18;;;13.90;99.90;;;;;;5055561;28;20394;-56
2022/10/31 10:05:41;;;;;;;17.75;15.68;;;14.10;99.90;;;;;;5058194;28;20496;-54
2022/10/31 10:08:11;;;;;;;17.95;15.63;;;14.20;99.90;;;;;;5060265;28;20799;-57
2022/10/31 10:11:00;;;;;;;15.02;13.43;;;14.30;99.90;;;;;;5061115;28;20766;-54
2022/10/31 10:14:15;;;;;;;16.73;13.00;;;14.40;99.90;;;;;;5061338;28;20403;-58
2022/10/31 10:17:02;;;;;;;16.58;13.85;;;14.50;99.90;;;;;;5006882;28;20400;-57
2022/10/31 10:19:48;;;;;;;17.75;15.95;;;14.60;99.90;;;;;;5058452;28;20419;-54
2022/10/31 10:22:37;;;;;;;16.20;14.43;;;14.70;99.90;;;;;;5058426;28;20395;-54
2022/10/31 10:25:57;;;;;;;20.83;18.55;;;14.70;99.90;;;;;;5059268;28;20826;-55
2022/10/31 10:28:38;;;;;;;25.38;22.42;;;14.70;99.90;;;;;;4978398;28;20485;-50
2022/10/31 10:31:28;;;;;;;20.67;18.58;;;14.70;99.90;;;;;;4993744;28;20395;-57
2022/10/31 10:34:15;;;;;;;17.73;15.85;;;14.60;99.90;;;;;;5054674;28;20728;-55
2022/10/31 10:37:04;;;;;;;18.35;16.45;;;14.70;99.90;;;;;;5059054;28;20500;-53
2022/10/31 10:39:56;;;;;;;17.45;15.63;;;14.80;99.90;;;;;;5061297;28;20379;-57
2022/10/31 10:48:30;;;;;;;17.17;15.47;;;15.00;99.90;;;;;;5061306;28;20469;-56
2022/10/31 10:50:57;;;;;;;17.88;15.98;;;15.10;99.90;;;;;;5058819;28;20375;-56
2022/10/31 10:54:32;;;;;;;17.30;15.70;;;15.10;99.90;;;;;;5057711;28;20895;-58
2022/10/31 10:56:44;;;;;;;17.27;15.73;;;15.10;99.90;;;;;;5047876;28;20445;-56
2022/10/31 10:59:13;;;;;;;17.80;16.15;;;15.20;99.90;;;;;;5056313;28;20426;-58
2022/10/31 11:01:41;;;;;;;15.48;14.05;;;15.10;99.90;;;;;;5055580;28;20388;-48
2022/10/31 11:04:30;;;;;;;24.27;20.23;;;15.20;99.90;;;;;;5056474;28;20468;-52
2022/10/31 11:07:01;;;;;;;20.27;18.17;;;15.10;99.90;;;;;;5063598;28;20380;-50
2022/10/31 11:09:29;;;;;;;18.33;16.50;;;15.00;99.90;;;;;;5063708;28;20643;-48
2022/10/31 11:11:58;;;;;;;19.13;17.15;;;15.10;99.90;;;;;;5067704;28;20405;-50
2022/10/31 11:14:26;;;;;;;19.00;17.00;;;15.10;99.90;;;;;;5066484;28;20391;-54
2022/10/31 11:17:09;;;;;;;19.88;17.42;;;15.20;99.90;;;;;;5071652;28;20975;-54
2022/10/31 11:19:38;;;;;;;22.10;19.80;;;15.20;99.90;;;;;;5072548;28;20479;-54
2022/10/31 11:22:14;;;;;;;22.73;20.33;;;15.30;99.90;;;;;;5072532;28;20461;-62
2022/10/31 11:24:41;;;;;;;25.80;23.20;;;15.30;99.90;;;;;;5071246;28;20384;-58
2022/10/31 11:27:24;;;;;;;23.58;21.05;;;15.50;99.90;;;;;;5071218;28;21041;-57
2022/10/31 11:29:50;;;;;;;24.20;21.80;;;15.70;99.90;;;;;;5071833;28;20387;-57
2022/10/31 11:32:24;;;;;;;20.23;18.33;;;16.00;99.90;;;;;;5072509;28;20449;-58
2022/10/31 11:35:09;;;;;;;25.88;23.42;;;16.10;99.90;;;;;;5074935;28;20383;-57
2022/10/31 11:37:42;;;;;;;26.42;23.85;;;15.90;99.90;;;;;;5072759;28;20371;-57
2022/10/31 11:40:17;;;;;;;27.35;24.70;;;15.70;99.90;;;;;;5072333;28;20383;-56
2022/10/31 11:42:43;;;;;;;28.48;24.98;;;15.40;99.90;;;;;;5070895;28;20795;-58
2022/10/31 11:45:28;;;;;;;28.45;25.42;;;15.20;99.90;;;;;;5070982;28;20393;-58
2022/10/31 11:47:56;;;;;;;27.45;23.77;;;15.30;99.90;;;;;;5069972;28;21198;-58
2022/10/31 11:50:38;;;;;;;25.70;23.02;;;15.50;99.90;;;;;;5068337;28;20479;-58
2022/10/31 11:53:11;;;;;;;20.75;18.65;;;15.60;99.90;;;;;;5064824;28;20410;-59
2022/10/31 11:55:39;;;;;;;36.33;32.80;;;16.10;99.90;;;;;;5060220;28;20801;-58
2022/10/31 11:58:23;;;;;;;28.10;25.52;;;16.40;99.90;;;;;;5056378;28;20371;-57
2022/10/31 12:00:52;;;;;;;30.35;27.52;;;16.40;99.90;;;;;;5058404;28;20395;-58
2022/10/31 12:03:46;;;;;;;29.95;27.63;;;16.60;99.90;;;;;;5060697;28;20448;-57
2022/10/31 12:06:18;;;;;;;33.30;30.30;;;17.00;99.90;;;;;;5061518;28;20415;-58
2022/10/31 12:08:44;;;;;;;32.85;29.50;;;16.70;99.90;;;;;;5061633;28;20387;-58
2022/10/31 12:11:46;;;;;;;31.42;28.73;;;16.60;99.90;;;;;;5060167;28;20386;-58
2022/10/31 12:14:40;;;;;;;36.38;33.08;;;16.70;99.90;;;;;;5063542;28;20387;-58
2022/10/31 12:17:25;;;;;;;29.67;27.03;;;16.40;99.90;;;;;;5063337;28;20392;-59
2022/10/31 12:20:21;;;;;;;37.63;34.08;;;16.70;99.90;;;;;;5065686;28;20475;-58
2022/10/31 12:23:16;;;;;;;36.37;32.80;;;16.40;99.90;;;;;;5065547;28;20379;-55
2022/10/31 12:25:47;;;;;;;28.48;25.83;;;15.90;99.90;;;;;;5064672;28;20384;-56
2022/10/31 12:28:57;;;;;;;26.20;23.80;;;15.80;99.90;;;;;;5064631;28;20740;-57
2022/10/31 12:31:36;;;;;;;31.55;28.58;;;15.90;99.90;;;;;;5034371;28;20392;-56
2022/10/31 12:34:16;;;;;;;33.42;30.27;;;16.00;99.90;;;;;;5067226;28;20815;-57
2022/10/31 12:36:55;;;;;;;34.85;31.60;;;16.10;99.90;;;;;;5069280;28;20387;-57
2022/10/31 12:39:33;;;;;;;31.35;28.38;;;16.10;99.90;;;;;;5068601;28;20387;-58
2022/10/31 12:42:30;;;;;;;30.48;27.55;;;16.00;99.90;;;;;;5066958;28;20380;-57
2022/10/31 12:45:20;;;;;;;31.30;28.23;;;16.00;99.90;;;;;;5067155;28;20390;-57
2022/10/31 12:48:00;;;;;;;29.02;26.33;;;16.00;99.90;;;;;;5066230;28;20396;-57
2022/10/31 12:50:53;;;;;;;27.58;25.08;;;16.00;99.90;;;;;;5065503;28;20390;-58
2022/10/31 12:53:44;;;;;;;30.38;27.38;;;16.10;99.90;;;;;;5066487;28;20465;-58
2022/10/31 12:56:55;;;;;;;31.83;28.52;;;16.10;99.90;;;;;;5068297;28;20413;-55